createdAt,value
2018-08-12T00:00:18.550Z,55.20
2018-08-12T00:02:46.803Z,55.20
2018-08-12T00:05:14.517Z,55.20
2018-08-12T00:07:42.304Z,55.30
2018-08-12T00:10:10.942Z,55.30
2018-08-12T00:12:39.123Z,55.10
2018-08-12T00:15:09.018Z,55.00
2018-08-12T00:17:36.835Z,55.20
2018-08-12T00:20:06.431Z,55.00
2018-08-12T00:22:34.178Z,54.90
2018-08-12T00:25:02.036Z,55.00
2018-08-12T00:27:29.813Z,55.30
2018-08-12T00:29:57.463Z,56.10
2018-08-12T00:32:25.249Z,55.90
2018-08-12T00:34:52.999Z,55.80
2018-08-12T00:37:20.707Z,56.30
2018-08-12T00:39:48.468Z,56.70
2018-08-12T00:42:16.140Z,56.70
2018-08-12T00:44:43.929Z,57.10
2018-08-12T00:47:11.611Z,56.90
2018-08-12T00:49:39.386Z,57.00
2018-08-12T00:52:07.119Z,56.80
2018-08-12T00:54:35.348Z,56.90
2018-08-12T00:57:03.136Z,56.90
2018-08-12T00:59:30.848Z,57.30
2018-08-12T01:01:58.654Z,57.50
2018-08-12T01:04:26.474Z,58.00
2018-08-12T01:06:54.341Z,58.10
2018-08-12T01:09:22.103Z,58.00
2018-08-12T01:11:49.791Z,58.00
2018-08-12T01:14:17.606Z,57.90
2018-08-12T01:16:45.338Z,58.10
2018-08-12T01:19:13.107Z,58.10
2018-08-12T01:21:40.866Z,58.10
2018-08-12T01:24:08.832Z,58.20
2018-08-12T01:26:36.679Z,58.40
2018-08-12T01:29:04.472Z,58.50
2018-08-12T01:31:32.330Z,58.70
2018-08-12T01:34:00.009Z,58.50
2018-08-12T01:36:27.811Z,58.80
2018-08-12T01:38:55.692Z,59.00
2018-08-12T01:41:23.668Z,59.10
2018-08-12T01:43:51.359Z,59.20
2018-08-12T01:46:19.187Z,59.10
2018-08-12T01:48:46.895Z,58.90
2018-08-12T01:51:14.733Z,59.00
2018-08-12T01:53:42.840Z,59.20
2018-08-12T01:56:10.529Z,59.30
2018-08-12T01:58:39.247Z,59.50
2018-08-12T02:01:07.259Z,59.50
2018-08-12T02:03:35.363Z,59.60
2018-08-12T02:06:03.217Z,59.80
2018-08-12T02:08:31.284Z,59.60
2018-08-12T02:10:59.082Z,59.80
2018-08-12T02:13:26.906Z,59.90
2018-08-12T02:15:54.626Z,59.90
2018-08-12T02:18:22.481Z,60.10
2018-08-12T02:20:50.214Z,60.50
2018-08-12T02:23:18.819Z,60.70
2018-08-12T02:25:46.504Z,60.90
2018-08-12T02:28:14.296Z,61.50
2018-08-12T02:30:42.021Z,61.00
2018-08-12T02:33:10.348Z,61.70
2018-08-12T02:35:38.089Z,61.40
2018-08-12T02:38:07.040Z,61.60
2018-08-12T02:40:34.927Z,61.70
2018-08-12T02:43:03.184Z,62.10
2018-08-12T02:45:33.914Z,62.10
2018-08-12T02:48:02.184Z,62.00
2018-08-12T02:50:32.043Z,62.40
2018-08-12T02:53:00.018Z,62.70
2018-08-12T02:55:28.512Z,62.60
2018-08-12T02:57:57.232Z,63.00
2018-08-12T03:00:25.736Z,63.10
2018-08-12T03:02:54.402Z,63.40
2018-08-12T03:05:23.877Z,63.90
2018-08-12T03:07:52.866Z,63.80
2018-08-12T03:10:22.373Z,64.00
2018-08-12T03:12:50.039Z,63.90
2018-08-12T03:15:19.144Z,64.10
2018-08-12T03:17:48.028Z,64.30
2018-08-12T03:20:21.452Z,64.30
2018-08-12T03:22:51.093Z,64.60
2018-08-12T03:25:20.068Z,64.90
2018-08-12T03:27:48.710Z,64.70
2018-08-12T03:30:17.177Z,64.40
2018-08-12T03:32:46.773Z,64.60
2018-08-12T03:35:15.178Z,65.10
2018-08-12T03:37:42.903Z,65.30
2018-08-12T03:40:13.721Z,65.20
2018-08-12T03:42:43.017Z,65.30
2018-08-12T03:45:11.908Z,92.70
2018-08-12T03:47:40.701Z,65.40
2018-08-12T03:50:10.903Z,65.00
2018-08-12T03:52:39.698Z,65.20
2018-08-12T03:55:07.877Z,65.70
2018-08-12T03:57:38.367Z,65.50
2018-08-12T04:00:11.171Z,65.40
2018-08-12T04:02:38.992Z,65.40
2018-08-12T04:05:07.510Z,65.40
2018-08-12T04:07:37.944Z,65.50
2018-08-12T04:10:09.322Z,66.00
2018-08-12T04:12:37.294Z,65.90
2018-08-12T04:15:07.504Z,65.80
2018-08-12T04:17:37.639Z,66.20
2018-08-12T04:20:09.796Z,66.00
2018-08-12T04:22:40.253Z,65.80
2018-08-12T04:25:10.144Z,66.20
2018-08-12T04:27:40.107Z,66.50
2018-08-12T04:30:10.758Z,66.40
2018-08-12T04:32:38.416Z,66.40
2018-08-12T04:35:08.663Z,66.60
2018-08-12T04:37:38.016Z,66.80
2018-08-12T04:40:09.784Z,67.30
2018-08-12T04:42:39.722Z,67.10
2018-08-12T04:45:13.329Z,74.30
2018-08-12T04:47:42.820Z,66.80
2018-08-12T04:50:12.681Z,66.90
2018-08-12T04:52:42.359Z,67.40
2018-08-12T04:55:11.488Z,67.50
2018-08-12T04:57:40.529Z,67.30
2018-08-12T05:00:12.598Z,67.20
2018-08-12T05:02:41.072Z,67.40
2018-08-12T05:05:11.098Z,67.80
2018-08-12T05:07:41.010Z,67.50
2018-08-12T05:10:11.544Z,67.10
2018-08-12T05:12:40.372Z,67.30
2018-08-12T05:15:13.045Z,67.60
2018-08-12T05:17:44.119Z,67.60
2018-08-12T05:20:20.074Z,68.00
2018-08-12T05:22:49.812Z,68.10
2018-08-12T05:25:20.796Z,68.90
2018-08-12T05:27:51.731Z,68.60
2018-08-12T05:30:21.779Z,68.10
2018-08-12T05:32:52.010Z,68.30
2018-08-12T05:35:20.642Z,68.90
2018-08-12T05:37:54.583Z,68.40
2018-08-12T05:40:23.238Z,68.20
2018-08-12T05:42:51.020Z,68.10
2018-08-12T05:45:28.670Z,68.40
2018-08-12T05:47:57.064Z,68.20
2018-08-12T05:50:28.548Z,68.00
2018-08-12T05:52:56.697Z,68.10
2018-08-12T05:55:30.783Z,69.10
2018-08-12T05:58:07.440Z,69.40
2018-08-12T06:00:39.766Z,69.50
2018-08-12T06:03:11.440Z,69.60
2018-08-12T06:05:40.983Z,70.40
2018-08-12T06:08:12.379Z,70.30
2018-08-12T06:10:44.376Z,70.00
2018-08-12T06:13:16.938Z,69.80
2018-08-12T06:15:48.165Z,69.20
2018-08-12T06:18:15.944Z,68.90
2018-08-12T06:20:45.999Z,68.50
2018-08-12T06:23:14.705Z,68.20
2018-08-12T06:25:44.322Z,68.00
2018-08-12T06:28:15.448Z,68.00
2018-08-12T06:30:46.041Z,67.80
2018-08-12T06:33:18.038Z,67.60
2018-08-12T06:38:52.263Z,67.10
2018-08-12T06:41:29.087Z,67.30
2018-08-12T06:44:00.821Z,67.10
2018-08-12T06:46:32.153Z,65.70
2018-08-12T06:49:08.939Z,66.00
2018-08-12T06:51:39.891Z,64.90
2018-08-12T06:54:15.672Z,66.00
2018-08-12T06:59:24.940Z,64.40
2018-08-12T07:01:57.000Z,65.00
2018-08-12T07:04:33.781Z,65.10
2018-08-12T07:07:08.230Z,64.90
2018-08-12T07:09:35.983Z,64.20
2018-08-12T07:12:03.853Z,64.30
2018-08-12T07:14:31.644Z,64.40
2018-08-12T07:16:59.444Z,61.90
2018-08-12T07:19:27.092Z,62.80
2018-08-12T07:21:54.858Z,62.40
2018-08-12T07:24:22.508Z,61.80
2018-08-12T07:26:50.273Z,60.50
2018-08-12T07:29:18.012Z,60.30
2018-08-12T07:31:45.721Z,61.90
2018-08-12T07:34:13.554Z,62.00
2018-08-12T07:36:41.389Z,60.80
2018-08-12T07:39:09.839Z,60.30
2018-08-12T07:41:37.592Z,60.40
2018-08-12T07:44:05.396Z,60.50
2018-08-12T07:46:33.783Z,60.70
2018-08-12T07:49:01.607Z,58.50
2018-08-12T07:51:29.481Z,59.60
2018-08-12T07:53:57.231Z,59.30
2018-08-12T07:56:24.942Z,60.10
2018-08-12T07:58:52.753Z,57.10
2018-08-12T08:01:20.471Z,58.70
2018-08-12T08:03:48.330Z,58.20
2018-08-12T08:06:16.151Z,56.50
2018-08-12T08:08:44.508Z,54.90
2018-08-12T08:11:12.280Z,54.80
2018-08-12T08:13:40.108Z,55.30
2018-08-12T08:16:08.023Z,56.10
2018-08-12T08:18:35.879Z,55.70
2018-08-12T08:21:03.655Z,55.00
2018-08-12T08:23:31.449Z,55.30
2018-08-12T08:25:59.179Z,55.30
2018-08-12T08:28:26.876Z,53.30
2018-08-12T08:30:54.545Z,53.70
2018-08-12T08:33:22.389Z,54.20
2018-08-12T08:35:50.135Z,55.60
2018-08-12T08:38:17.918Z,53.10
2018-08-12T08:40:45.600Z,53.40
2018-08-12T08:43:13.335Z,52.70
2018-08-12T08:45:41.195Z,50.80
2018-08-12T08:48:09.018Z,51.70
2018-08-12T08:50:36.825Z,51.80
2018-08-12T08:53:04.704Z,50.90
2018-08-12T08:55:32.431Z,51.60
2018-08-12T08:58:00.184Z,51.40
2018-08-12T09:00:27.963Z,51.10
2018-08-12T09:02:55.852Z,50.90
2018-08-12T09:05:23.660Z,51.10
2018-08-12T09:07:51.756Z,49.50
2018-08-12T09:10:19.919Z,51.40
2018-08-12T09:12:47.696Z,50.20
2018-08-12T09:15:17.242Z,51.10
2018-08-12T09:17:45.566Z,50.20
2018-08-12T09:20:15.018Z,50.20
2018-08-12T09:22:42.951Z,49.70
2018-08-12T09:25:11.511Z,49.30
2018-08-12T09:27:39.502Z,50.10
2018-08-12T09:30:09.567Z,50.10
2018-08-12T09:32:37.729Z,47.80
2018-08-12T09:35:05.823Z,47.60
2018-08-12T09:37:33.617Z,47.30
2018-08-12T09:40:01.406Z,46.90
2018-08-12T09:42:29.249Z,46.70
2018-08-12T09:44:56.967Z,43.30
2018-08-12T09:47:24.774Z,46.40
2018-08-12T09:49:52.529Z,45.30
2018-08-12T09:52:20.321Z,44.10
2018-08-12T09:54:48.004Z,45.10
2018-08-12T09:57:15.819Z,45.60
2018-08-12T09:59:43.675Z,45.90
2018-08-12T10:02:11.356Z,44.20
2018-08-12T10:04:39.216Z,44.40
2018-08-12T10:07:06.923Z,43.00
2018-08-12T10:09:34.716Z,45.40
2018-08-12T10:12:02.401Z,45.40
2018-08-12T10:17:05.828Z,41.60
2018-08-12T10:19:33.654Z,42.50
2018-08-12T10:22:01.687Z,42.50
2018-08-12T10:24:29.508Z,42.50
2018-08-12T10:26:57.392Z,41.60
2018-08-12T10:29:25.185Z,40.00
2018-08-12T10:31:52.888Z,41.20
2018-08-12T10:34:20.626Z,41.70
2018-08-12T10:36:48.356Z,41.80
2018-08-12T10:41:43.818Z,41.70
2018-08-12T10:44:11.637Z,42.60
2018-08-12T10:46:39.316Z,40.10
2018-08-12T10:49:07.154Z,41.30
2018-08-12T10:51:36.942Z,41.30
2018-08-12T10:54:05.000Z,40.00
2018-08-12T10:56:41.897Z,40.60
2018-08-12T10:59:09.768Z,40.00
2018-08-12T11:01:41.998Z,39.50
2018-08-12T11:04:13.684Z,39.00
2018-08-12T11:06:51.634Z,39.50
2018-08-12T11:09:26.414Z,39.90
2018-08-12T11:12:02.120Z,38.60
2018-08-12T11:14:34.873Z,37.40
2018-08-12T11:17:14.041Z,38.60
2018-08-12T11:19:50.918Z,37.40
2018-08-12T11:22:18.770Z,37.70
2018-08-12T11:24:47.487Z,37.20
2018-08-12T11:27:16.212Z,37.80
2018-08-12T11:29:43.989Z,37.70
2018-08-12T11:32:16.917Z,36.30
2018-08-12T11:34:45.643Z,35.30
2018-08-12T11:37:13.404Z,37.00
2018-08-12T11:39:41.984Z,35.40
2018-08-12T11:42:09.827Z,33.60
2018-08-12T11:44:37.512Z,35.20
2018-08-12T11:47:05.220Z,35.10
2018-08-12T11:49:33.180Z,33.50
2018-08-12T11:52:01.868Z,34.70
2018-08-12T11:54:30.177Z,35.80
2018-08-12T11:56:57.983Z,32.00
2018-08-12T11:59:25.808Z,34.50
2018-08-12T12:01:53.570Z,32.10
2018-08-12T12:04:21.618Z,33.10
2018-08-12T12:06:52.146Z,32.10
2018-08-12T12:09:19.940Z,34.80
2018-08-12T12:11:47.631Z,33.50
2018-08-12T13:57:56.453Z,22.80
2018-08-12T14:00:25.354Z,22.70
2018-08-12T14:02:53.225Z,23.60
2018-08-12T14:05:57.371Z,25.10
2018-08-12T14:15:18.491Z,24.20
2018-08-12T14:17:48.095Z,23.90
2018-08-12T14:20:17.296Z,24.20
2018-08-12T14:22:45.126Z,24.60
2018-08-12T14:25:13.088Z,24.40
2018-08-12T14:27:41.890Z,24.80
2018-08-12T14:48:13.529Z,24.60
2018-08-12T14:50:55.945Z,24.80
2018-08-12T15:08:19.518Z,25.40
2018-08-12T15:14:21.180Z,25.10
2018-08-12T15:17:17.020Z,25.30
2018-08-12T15:20:03.684Z,25.40
2018-08-12T15:23:01.029Z,25.30
2018-08-12T15:25:53.832Z,25.40
2018-08-12T15:31:30.018Z,25.90
2018-08-12T15:37:04.817Z,25.70
2018-08-12T15:39:40.472Z,24.80
2018-08-12T15:42:20.392Z,24.60
2018-08-12T15:45:10.254Z,26.50
2018-08-12T15:47:39.076Z,26.20
2018-08-12T15:50:10.648Z,25.30
2018-08-12T15:52:42.609Z,27.10
2018-08-12T15:55:10.672Z,25.80
2018-08-12T15:57:48.017Z,26.50
2018-08-12T16:00:26.455Z,26.10
2018-08-12T16:02:56.986Z,25.60
2018-08-12T16:05:28.442Z,25.90
2018-08-12T16:07:58.327Z,26.40
2018-08-12T16:10:27.973Z,25.40
2018-08-12T16:13:00.832Z,24.90
2018-08-12T16:15:31.276Z,25.90
2018-08-12T16:18:03.008Z,25.50
2018-08-12T16:20:35.089Z,25.40
2018-08-12T16:23:03.976Z,26.30
2018-08-12T16:25:32.599Z,25.70
2018-08-12T16:28:00.415Z,26.40
2018-08-12T16:30:46.469Z,27.60
2018-08-12T16:33:14.223Z,25.60
2018-08-12T16:35:41.939Z,26.80
2018-08-12T16:38:09.704Z,26.00
2018-08-12T16:40:37.484Z,26.40
2018-08-12T16:43:05.361Z,26.70
2018-08-12T16:45:34.478Z,26.40
2018-08-12T16:48:02.592Z,27.40
2018-08-12T16:50:31.669Z,27.40
2018-08-12T16:53:00.269Z,27.50
2018-08-12T16:55:28.127Z,27.10
2018-08-12T16:57:56.437Z,27.10
2018-08-12T17:00:24.616Z,27.90
2018-08-12T17:02:52.504Z,28.30
2018-08-12T17:05:21.878Z,28.60
2018-08-12T17:07:49.811Z,27.50
2018-08-12T17:10:18.360Z,27.60
2018-08-12T17:12:46.183Z,29.00
2018-08-12T17:15:16.271Z,28.20
2018-08-12T17:17:51.414Z,28.40
2018-08-12T17:20:20.295Z,28.80
2018-08-12T17:22:48.475Z,28.90
2018-08-12T17:25:16.845Z,28.90
2018-08-12T17:27:44.623Z,29.20
2018-08-12T17:30:16.879Z,29.90
2018-08-12T17:32:52.469Z,29.40
2018-08-12T17:35:21.054Z,30.20
2018-08-12T17:37:48.798Z,29.80
2018-08-12T17:40:17.585Z,29.40
2018-08-12T17:42:45.337Z,29.80
2018-08-12T17:45:14.353Z,29.30
2018-08-12T17:47:42.203Z,29.70
2018-08-12T17:50:11.565Z,30.30
2018-08-12T17:52:39.540Z,30.50
2018-08-12T17:55:08.832Z,30.20
2018-08-12T17:57:36.581Z,30.80
2018-08-12T18:00:06.781Z,30.40
2018-08-12T18:02:34.633Z,31.30
2018-08-12T18:05:02.343Z,31.30
2018-08-12T18:07:30.212Z,32.20
2018-08-12T18:09:57.905Z,31.40
2018-08-12T18:12:25.711Z,31.80
2018-08-12T18:14:55.645Z,31.80
2018-08-12T18:17:25.328Z,32.10
2018-08-12T18:19:55.377Z,33.20
2018-08-12T18:22:23.204Z,32.40
2018-08-12T18:24:53.892Z,33.00
2018-08-12T18:27:25.357Z,33.00
2018-08-12T18:29:55.660Z,33.00
2018-08-12T18:32:23.518Z,33.50
2018-08-12T18:34:51.296Z,34.10
2018-08-12T18:37:19.089Z,34.10
2018-08-12T18:39:51.432Z,34.40
2018-08-12T18:42:27.219Z,34.60
2018-08-12T18:44:57.986Z,34.80
2018-08-12T18:47:30.551Z,34.60
2018-08-12T18:50:04.207Z,34.60
2018-08-12T18:52:39.083Z,35.00
2018-08-12T18:55:13.236Z,35.10
2018-08-12T18:57:43.755Z,34.80
2018-08-12T19:00:16.400Z,35.10
2018-08-12T19:02:48.813Z,35.00
2018-08-12T19:05:18.348Z,35.10
2018-08-12T19:07:51.297Z,35.90
2018-08-12T19:10:22.620Z,36.00
2018-08-12T19:12:56.398Z,36.30
2018-08-12T19:15:27.837Z,36.20
2018-08-12T19:17:57.471Z,36.80
2018-08-12T19:20:27.069Z,36.80
2018-08-12T19:22:56.114Z,36.90
2018-08-12T19:25:26.588Z,37.50
2018-08-12T19:27:56.525Z,37.60
2018-08-12T19:30:27.952Z,38.10
2018-08-12T19:32:59.361Z,37.90
2018-08-12T19:35:30.687Z,38.50
2018-08-12T19:38:00.865Z,38.80
2018-08-12T19:40:31.861Z,38.80
2018-08-12T19:43:00.641Z,39.50
2018-08-12T19:45:30.634Z,39.60
2018-08-12T19:48:03.469Z,40.10
2018-08-12T19:50:33.148Z,40.50
2018-08-12T19:53:01.035Z,40.20
2018-08-12T19:55:28.782Z,40.20
2018-08-12T19:57:57.716Z,40.20
2018-08-12T20:00:25.412Z,40.00
2018-08-12T20:02:53.978Z,40.60
2018-08-12T20:05:23.968Z,41.30
2018-08-12T20:07:54.004Z,41.20
2018-08-12T20:10:21.832Z,41.40
2018-08-12T20:12:52.611Z,41.80
2018-08-12T20:15:28.312Z,42.00
2018-08-12T20:17:59.486Z,42.30
2018-08-12T20:20:33.340Z,41.90
2018-08-12T20:23:04.379Z,42.20
2018-08-12T20:25:33.012Z,41.90
2018-08-12T20:28:03.022Z,41.80
2018-08-12T20:30:32.172Z,42.30
2018-08-12T20:33:04.069Z,42.40
2018-08-12T20:35:34.707Z,42.80
2018-08-12T20:38:04.129Z,42.70
2018-08-12T20:40:36.173Z,42.00
2018-08-12T20:43:09.460Z,42.20
2018-08-12T20:45:39.890Z,42.30
2018-08-12T20:48:12.804Z,43.20
2018-08-12T20:50:46.832Z,42.70
2018-08-12T20:53:15.640Z,42.70
2018-08-12T20:55:50.155Z,43.00
2018-08-12T20:58:27.775Z,43.60
2018-08-12T21:01:04.103Z,43.60
2018-08-12T21:03:41.168Z,42.90
2018-08-12T21:06:13.979Z,43.70
2018-08-12T21:08:46.745Z,44.00
2018-08-12T21:11:20.163Z,44.00
2018-08-12T21:13:56.705Z,44.60
2018-08-12T21:16:32.708Z,44.20
2018-08-12T21:19:05.735Z,44.40
2018-08-12T21:21:42.387Z,44.60
2018-08-12T21:24:14.363Z,45.20
2018-08-12T21:26:50.862Z,45.70
2018-08-12T21:29:24.658Z,45.60
2018-08-12T21:31:59.871Z,46.50
2018-08-12T21:34:34.590Z,47.30
2018-08-12T21:37:09.501Z,46.90
2018-08-12T21:39:48.224Z,46.70
2018-08-12T21:42:23.713Z,47.00
2018-08-12T21:44:55.186Z,46.70
2018-08-12T21:47:31.979Z,46.90
2018-08-12T21:50:04.480Z,46.60
2018-08-12T21:52:38.840Z,46.90
2018-08-12T21:55:14.998Z,46.60
2018-08-12T21:57:54.311Z,46.80
2018-08-12T22:00:35.456Z,46.90
2018-08-12T22:03:15.422Z,46.80
2018-08-12T22:05:48.349Z,47.40
2018-08-12T22:08:20.282Z,47.70
2018-08-12T22:10:56.510Z,48.00
